createdAt,value
2019-04-11T00:00:33.739Z,61.00
2019-04-11T00:03:02.993Z,59.23
2019-04-11T00:05:31.721Z,61.83
2019-04-11T00:08:00.227Z,65.35
2019-04-11T00:10:29.211Z,63.02
2019-04-11T00:12:58.982Z,63.25
2019-04-11T00:15:28.654Z,65.08
2019-04-11T00:17:58.470Z,60.28
2019-04-11T00:20:27.086Z,63.13
2019-04-11T00:22:55.544Z,65.65
2019-04-11T00:25:23.969Z,65.22
2019-04-11T00:27:53.137Z,64.90
2019-04-11T00:30:21.968Z,66.35
2019-04-11T00:32:50.521Z,65.62
2019-04-11T00:35:19.708Z,64.95
2019-04-11T00:37:49.328Z,63.40
2019-04-11T00:40:18.830Z,67.42
2019-04-11T00:42:48.247Z,64.70
2019-04-11T00:45:16.729Z,66.35
2019-04-11T00:47:45.192Z,73.07
2019-04-11T00:50:14.860Z,68.33
2019-04-11T00:52:43.422Z,69.95
2019-04-11T00:55:11.916Z,66.00
2019-04-11T00:57:41.146Z,72.08
2019-04-11T01:00:11.025Z,69.05
2019-04-11T01:02:41.497Z,70.35
2019-04-11T01:05:10.314Z,69.40
2019-04-11T01:07:38.799Z,72.30
2019-04-11T01:10:08.116Z,81.60
2019-04-11T01:12:36.667Z,66.15
2019-04-11T01:15:08.355Z,73.25
2019-04-11T01:17:37.102Z,76.65
2019-04-11T01:20:08.129Z,79.05
2019-04-11T01:22:36.660Z,73.73
2019-04-11T01:25:08.461Z,79.47
2019-04-11T01:27:39.407Z,76.37
2019-04-11T01:30:09.780Z,76.60
2019-04-11T01:32:38.314Z,83.73
2019-04-11T01:35:06.996Z,81.65
2019-04-11T01:37:36.710Z,78.05
2019-04-11T01:40:07.659Z,81.15
2019-04-11T01:45:05.499Z,77.05
2019-04-11T01:47:44.782Z,80.55
2019-04-11T01:50:15.039Z,79.17
2019-04-11T01:52:44.537Z,82.67
2019-04-11T01:55:14.324Z,77.80
2019-04-11T01:57:44.423Z,81.63
2019-04-11T02:00:17.710Z,79.00
2019-04-11T02:02:57.054Z,84.97
2019-04-11T02:05:27.351Z,81.02
2019-04-11T02:07:55.805Z,83.15
2019-04-11T02:10:24.514Z,78.50
2019-04-11T02:12:53.288Z,84.77
2019-04-11T02:15:22.543Z,84.75
2019-04-11T02:17:50.999Z,84.67
2019-04-11T02:20:19.424Z,84.40
2019-04-11T02:22:52.883Z,82.57
2019-04-11T02:25:23.065Z,89.58
2019-04-11T02:27:52.537Z,81.63
2019-04-11T02:30:22.784Z,85.45
2019-04-11T02:32:53.463Z,84.58
2019-04-11T02:35:24.001Z,83.25
2019-04-11T02:37:52.138Z,82.55
2019-04-11T02:40:22.504Z,87.25
2019-04-11T02:42:51.992Z,86.15
2019-04-11T02:45:31.095Z,90.77
2019-04-11T02:47:53.863Z,87.23
2019-04-11T02:50:24.162Z,85.75
2019-04-11T02:52:52.699Z,89.45
2019-04-11T02:55:21.920Z,84.22
2019-04-11T02:57:50.883Z,84.62
2019-04-11T03:00:20.578Z,77.05
2019-04-11T03:02:52.064Z,79.30
2019-04-11T03:05:20.804Z,79.15
2019-04-11T03:07:50.418Z,82.33
2019-04-11T03:10:20.831Z,84.70
2019-04-11T03:12:49.288Z,83.85
2019-04-11T03:15:31.689Z,80.53
2019-04-11T03:17:50.715Z,84.20
2019-04-11T03:20:26.566Z,80.03
2019-04-11T03:22:56.258Z,83.37
2019-04-11T03:25:20.108Z,74.90
2019-04-11T03:27:49.544Z,82.22
2019-04-11T03:30:24.972Z,80.17
2019-04-11T03:33:50.245Z,86.40
2019-04-11T03:36:07.435Z,87.35
2019-04-11T03:38:17.503Z,82.90
2019-04-11T03:40:38.656Z,83.37
2019-04-11T03:43:05.757Z,81.22
2019-04-11T03:45:44.149Z,82.27
2019-04-11T03:48:08.916Z,85.80
2019-04-11T03:50:26.060Z,90.10
2019-04-11T03:52:54.024Z,83.87
2019-04-11T03:55:23.391Z,85.35
2019-04-11T03:57:54.234Z,85.80
2019-04-11T04:00:24.769Z,82.95
2019-04-11T04:02:52.894Z,85.38
2019-04-11T04:05:21.772Z,83.00
2019-04-11T04:07:50.406Z,80.70
2019-04-11T04:10:21.188Z,83.87
2019-04-11T04:12:51.470Z,82.17
2019-04-11T04:15:47.436Z,81.55
2019-04-11T04:18:07.859Z,80.17
2019-04-11T04:20:45.967Z,80.03
2019-04-11T04:23:27.200Z,84.32
2019-04-11T04:25:58.470Z,86.53
2019-04-11T04:28:27.325Z,82.82
2019-04-11T04:30:55.889Z,85.60
2019-04-11T04:33:26.346Z,86.60
2019-04-11T04:35:55.962Z,83.00
2019-04-11T04:38:24.769Z,82.85
2019-04-11T04:41:12.124Z,83.37
2019-04-11T04:43:27.382Z,84.20
2019-04-11T04:46:13.568Z,82.82
2019-04-11T04:48:29.233Z,86.28
2019-04-11T04:50:58.490Z,82.60
2019-04-11T04:53:28.395Z,85.20
2019-04-11T04:55:57.482Z,84.07
2019-04-11T04:58:26.495Z,85.35
2019-04-11T05:00:56.749Z,82.82
2019-04-11T05:03:26.781Z,85.85
2019-04-11T05:05:55.514Z,85.47
2019-04-11T05:08:24.998Z,85.60
2019-04-11T05:10:53.671Z,87.17
2019-04-11T05:13:23.685Z,92.92
2019-04-11T05:16:05.741Z,86.32
2019-04-11T05:18:23.601Z,89.15
2019-04-11T05:20:52.782Z,84.37
2019-04-11T05:23:21.428Z,81.00
2019-04-11T05:25:50.874Z,84.75
2019-04-11T05:28:19.495Z,83.25
2019-04-11T05:30:49.011Z,84.28
2019-04-11T05:33:17.918Z,87.27
2019-04-11T05:35:46.544Z,87.33
2019-04-11T05:38:14.995Z,86.00
2019-04-11T05:40:43.422Z,80.20
2019-04-11T05:43:11.872Z,85.83
2019-04-11T05:45:40.292Z,85.97
2019-04-11T05:48:11.475Z,80.35
2019-04-11T05:50:47.059Z,85.87
2019-04-11T05:53:11.482Z,78.77
2019-04-11T05:55:43.237Z,81.82
2019-04-11T05:58:13.878Z,83.95
2019-04-11T06:00:41.991Z,80.47
2019-04-11T06:03:11.112Z,81.32
2019-04-11T06:05:43.144Z,79.17
2019-04-11T06:08:19.685Z,78.95
2019-04-11T06:11:02.404Z,76.17
2019-04-11T06:13:34.398Z,69.10
2019-04-11T06:16:04.291Z,73.02
2019-04-11T06:18:48.166Z,73.33
2019-04-11T06:21:18.428Z,72.97
2019-04-11T06:23:49.759Z,71.07
2019-04-11T06:26:22.997Z,70.92
2019-04-11T06:28:55.472Z,69.55
2019-04-11T06:31:42.251Z,67.08
2019-04-11T06:34:11.359Z,68.70
2019-04-11T06:36:59.632Z,68.35
2019-04-11T06:39:29.695Z,71.33
2019-04-11T06:42:04.113Z,66.75
2019-04-11T06:44:43.822Z,69.53
2019-04-11T06:47:13.991Z,68.42
2019-04-11T06:49:56.293Z,71.00
2019-04-11T06:52:26.628Z,66.42
2019-04-11T06:54:56.727Z,68.05
2019-04-11T06:57:36.174Z,68.80
2019-04-11T07:00:09.210Z,73.50
2019-04-11T07:02:39.311Z,68.78
2019-04-11T07:05:10.773Z,71.33
2019-04-11T07:07:42.999Z,75.72
2019-04-11T07:10:11.745Z,74.27
2019-04-11T07:12:42.793Z,72.30
2019-04-11T07:15:14.417Z,76.40
2019-04-11T07:18:01.070Z,78.00
2019-04-11T07:20:43.639Z,75.32
2019-04-11T07:23:30.764Z,77.90
2019-04-11T07:26:13.322Z,80.15
2019-04-11T07:28:43.835Z,77.37
2019-04-11T07:31:21.346Z,77.47
2019-04-11T07:33:56.100Z,79.03
2019-04-11T07:36:44.021Z,75.57
2019-04-11T07:39:14.630Z,73.72
2019-04-11T07:41:45.704Z,75.37
2019-04-11T07:44:30.132Z,74.17
2019-04-11T07:47:17.331Z,72.40
2019-04-11T07:49:43.233Z,72.87
2019-04-11T07:52:13.323Z,70.87
2019-04-11T07:54:41.748Z,67.92
2019-04-11T07:57:23.963Z,65.12
2019-04-11T08:00:03.795Z,72.40
2019-04-11T08:02:53.181Z,64.60
2019-04-11T08:05:23.625Z,68.52
2019-04-11T08:07:55.055Z,60.90
2019-04-11T08:10:35.136Z,61.08
2019-04-11T08:13:05.904Z,61.45
2019-04-11T08:15:50.744Z,61.13
2019-04-11T08:18:24.385Z,63.50
2019-04-11T08:20:57.424Z,63.38
2019-04-11T08:23:26.671Z,58.73
2019-04-11T08:25:57.880Z,57.80
2019-04-11T08:28:26.946Z,58.45
2019-04-11T08:31:13.507Z,58.25
2019-04-11T08:33:42.567Z,51.85
2019-04-11T08:36:15.780Z,54.75
2019-04-11T08:38:44.711Z,57.25
2019-04-11T08:41:15.555Z,49.35
2019-04-11T08:43:45.554Z,51.05
2019-04-11T08:46:33.699Z,50.60
2019-04-11T08:49:07.674Z,48.65
2019-04-11T08:51:36.508Z,51.68
2019-04-11T08:54:15.860Z,48.55
2019-04-11T08:56:45.388Z,52.13
2019-04-11T08:59:33.582Z,51.18
2019-04-11T09:02:02.680Z,49.58
2019-04-11T09:04:33.021Z,53.25
2019-04-11T09:07:01.439Z,48.75
2019-04-11T09:09:49.687Z,50.63
2019-04-11T09:12:18.420Z,50.73
2019-04-11T09:15:06.866Z,52.75
2019-04-11T09:17:36.961Z,48.30
2019-04-11T09:20:09.481Z,47.85
2019-04-11T09:22:42.544Z,48.55
2019-04-11T09:25:30.485Z,50.67
2019-04-11T09:28:06.707Z,49.13
2019-04-11T09:30:52.819Z,51.25
2019-04-11T09:33:39.724Z,50.80
2019-04-11T09:36:16.099Z,52.98
2019-04-11T09:38:59.055Z,49.18
2019-04-11T09:41:41.273Z,51.65
2019-04-11T09:47:13.601Z,51.42
2019-04-11T09:49:47.328Z,55.90
2019-04-11T09:52:23.348Z,55.50
2019-04-11T09:54:54.621Z,58.80
2019-04-11T09:57:34.612Z,52.55
2019-04-11T10:00:20.865Z,54.30
2019-04-11T10:02:50.963Z,52.33
2019-04-11T10:05:36.947Z,50.52
2019-04-11T10:08:10.640Z,55.85
2019-04-11T10:10:57.488Z,58.33
2019-04-11T10:13:45.794Z,53.25
2019-04-11T10:16:22.160Z,51.77
2019-04-11T10:18:53.543Z,52.05
2019-04-11T10:24:01.029Z,50.70
2019-04-11T10:26:31.971Z,51.92
2019-04-11T10:29:19.226Z,49.90
2019-04-11T10:31:55.131Z,52.85
2019-04-11T10:34:35.361Z,51.13
2019-04-11T10:37:04.390Z,49.67
2019-04-11T10:39:35.614Z,53.38
2019-04-11T10:42:15.118Z,51.63
2019-04-11T10:44:54.048Z,49.35
2019-04-11T10:47:33.297Z,50.78
2019-04-11T10:50:21.724Z,46.95
2019-04-11T10:52:52.948Z,47.45
2019-04-11T10:55:23.160Z,47.75
2019-04-11T10:57:54.084Z,47.30
2019-04-11T11:00:24.191Z,51.97
2019-04-11T11:02:54.283Z,50.17
2019-04-11T11:05:24.357Z,50.28
2019-04-11T11:07:55.143Z,53.30
2019-04-11T11:10:25.777Z,48.17
2019-04-11T11:12:57.204Z,50.53
2019-04-11T11:15:27.749Z,48.20
2019-04-11T11:18:31.037Z,49.75
2019-04-11T11:20:41.091Z,49.18
2019-04-11T11:23:24.575Z,50.45
2019-04-11T11:26:07.053Z,51.25
2019-04-11T11:28:38.643Z,55.17
2019-04-11T11:31:15.775Z,52.53
2019-04-11T11:33:45.320Z,49.63
2019-04-11T11:36:34.811Z,51.20
2019-04-11T11:39:08.884Z,49.53
2019-04-11T11:41:55.249Z,49.88
2019-04-11T11:44:25.598Z,48.45
2019-04-11T11:47:05.486Z,48.42
2019-04-11T11:49:45.948Z,49.83
2019-04-11T11:52:24.587Z,51.15
2019-04-11T11:54:53.667Z,52.40
2019-04-11T11:57:24.119Z,50.12
2019-04-11T11:59:54.191Z,53.35
2019-04-11T12:02:24.554Z,50.12
2019-04-11T12:05:07.840Z,48.90
2019-04-11T12:07:37.783Z,51.67
2019-04-11T12:10:22.500Z,47.55
2019-04-11T12:13:12.809Z,47.73
2019-04-11T12:15:49.005Z,50.03
2019-04-11T12:18:21.743Z,48.90
2019-04-11T12:20:59.229Z,49.70
2019-04-11T12:23:48.627Z,47.58
2019-04-11T12:26:12.276Z,49.03
2019-04-11T12:28:54.188Z,46.63
2019-04-11T12:31:28.705Z,51.05
2019-04-11T12:34:17.118Z,47.20
2019-04-11T12:36:50.092Z,46.33
2019-04-11T12:39:34.595Z,46.58
2019-04-11T12:42:04.665Z,45.20
2019-04-11T12:44:46.360Z,49.53
2019-04-11T12:49:55.200Z,49.88
2019-04-11T12:52:34.069Z,44.85
2019-04-11T12:55:04.160Z,47.33
2019-04-11T12:57:39.724Z,47.48
2019-04-11T13:00:16.777Z,50.40
2019-04-11T13:02:58.943Z,48.58
2019-04-11T13:08:00.531Z,50.08
2019-04-11T13:10:28.957Z,49.80
2019-04-11T13:13:15.240Z,47.67
2019-04-11T13:15:45.307Z,49.73
2019-04-11T13:18:31.688Z,46.02
2019-04-11T13:21:01.752Z,47.15
2019-04-11T13:23:40.448Z,47.15
2019-04-11T13:26:26.007Z,50.57
2019-04-11T13:31:54.020Z,42.62
2019-04-11T13:34:24.183Z,44.48
2019-04-11T13:37:10.627Z,46.98
2019-04-11T13:39:39.082Z,47.43
2019-04-11T13:42:14.950Z,42.43
2019-04-11T13:44:44.679Z,46.98
2019-04-11T13:47:14.740Z,46.75
2019-04-11T13:49:50.632Z,48.33
2019-04-11T13:52:20.687Z,48.90
2019-04-11T13:55:02.652Z,48.70
2019-04-11T13:57:32.855Z,48.60
2019-04-11T14:00:18.959Z,51.23
2019-04-11T14:02:51.979Z,46.63
2019-04-11T14:05:21.883Z,45.35
2019-04-11T14:07:51.955Z,54.42
2019-04-11T14:10:22.179Z,44.23
2019-04-11T14:12:52.247Z,46.50
2019-04-11T14:15:30.026Z,48.42
2019-04-11T14:18:04.962Z,43.17
2019-04-11T14:20:34.785Z,46.50
2019-04-11T14:23:04.915Z,49.90
2019-04-11T14:25:41.170Z,45.10
2019-04-11T14:28:11.240Z,47.55
2019-04-11T14:30:43.806Z,46.65
2019-04-11T14:33:12.233Z,43.60
2019-04-11T14:35:45.171Z,44.55
2019-04-11T14:38:15.494Z,46.85
2019-04-11T14:40:45.584Z,43.73
2019-04-11T14:43:27.629Z,47.58
2019-04-11T14:45:57.759Z,45.73
2019-04-11T14:48:30.740Z,47.33
2019-04-11T14:51:01.408Z,48.42
2019-04-11T14:53:31.945Z,45.30
2019-04-11T14:56:04.520Z,47.90
2019-04-11T14:58:37.020Z,48.20
2019-04-11T15:01:07.084Z,47.60
2019-04-11T15:03:43.259Z,42.62
2019-04-11T15:06:14.855Z,46.57
2019-04-11T15:08:47.454Z,47.17
2019-04-11T15:11:18.683Z,50.25
2019-04-11T15:16:28.275Z,47.13
2019-04-11T15:18:58.372Z,47.17
2019-04-11T15:21:44.659Z,50.25
2019-04-11T15:24:13.479Z,43.23
2019-04-11T15:26:46.375Z,44.03
2019-04-11T15:29:16.502Z,45.12
2019-04-11T15:32:04.534Z,49.13
2019-04-11T15:34:37.382Z,44.27
2019-04-11T15:37:25.833Z,46.70
2019-04-11T15:40:04.899Z,46.33
2019-04-11T15:42:53.015Z,45.05
2019-04-11T15:45:23.468Z,47.23
2019-04-11T15:47:56.564Z,42.13
2019-04-11T15:50:30.621Z,45.12
2019-04-11T15:53:01.275Z,46.42
2019-04-11T15:55:37.525Z,40.50
2019-04-11T15:58:04.520Z,50.03
2019-04-11T16:00:44.329Z,41.85
2019-04-11T16:03:13.011Z,44.85
2019-04-11T16:08:33.505Z,45.03
2019-04-11T16:11:03.616Z,48.90
2019-04-11T16:13:39.596Z,46.25
2019-04-11T16:16:11.962Z,45.23
2019-04-11T16:18:55.528Z,46.47
2019-04-11T16:21:31.531Z,51.08
2019-04-11T16:24:07.771Z,46.90
2019-04-11T16:26:40.587Z,42.20
2019-04-11T16:29:10.651Z,44.55
2019-04-11T16:31:40.815Z,44.03
2019-04-11T16:34:20.215Z,44.53
2019-04-11T16:36:50.283Z,45.17
2019-04-11T16:39:22.783Z,44.45
2019-04-11T16:41:55.774Z,43.75
2019-04-11T16:47:26.708Z,42.45
2019-04-11T16:49:56.983Z,41.37
2019-04-11T16:52:25.623Z,44.63
2019-04-11T16:54:54.077Z,44.55
2019-04-11T16:57:22.537Z,48.13
2019-04-11T16:59:51.035Z,44.73
2019-04-11T17:02:19.458Z,45.73
2019-04-11T17:04:47.924Z,431.73
2019-04-11T17:10:13.025Z,591.70
2019-04-11T17:12:41.446Z,163.05
2019-04-11T17:15:10.039Z,116.45
2019-04-11T17:17:38.469Z,60.45
2019-04-11T17:20:07.652Z,51.23
2019-04-11T17:22:36.076Z,86.90
2019-04-11T17:25:05.959Z,90.75
2019-04-11T17:27:34.379Z,80.17
2019-04-11T17:30:03.227Z,51.58
2019-04-11T17:32:31.715Z,54.38
2019-04-11T17:35:01.912Z,54.75
2019-04-11T17:37:30.938Z,48.87
2019-04-11T17:40:00.539Z,41.77
2019-04-11T17:42:29.027Z,43.25
2019-04-11T17:44:57.814Z,38.88
2019-04-11T17:47:26.975Z,42.27
2019-04-11T17:49:56.052Z,41.23
2019-04-11T17:52:24.476Z,40.00
2019-04-11T17:54:54.338Z,42.93
2019-04-11T17:57:26.739Z,46.70
2019-04-11T17:59:53.405Z,42.23
2019-04-11T18:02:21.822Z,60.40
2019-04-11T18:04:50.243Z,43.23
2019-04-11T18:07:18.682Z,44.23
2019-04-11T18:09:47.478Z,40.50
2019-04-11T18:12:16.339Z,42.58
2019-04-11T18:14:44.756Z,45.65
2019-04-11T18:17:13.214Z,40.40
2019-04-11T18:19:42.230Z,44.23
2019-04-11T18:22:13.263Z,43.73
2019-04-11T18:24:40.927Z,40.52
2019-04-11T18:27:09.688Z,43.78
2019-04-11T18:29:38.237Z,44.08
2019-04-11T18:32:06.758Z,43.42
2019-04-11T18:34:35.175Z,38.17
2019-04-11T18:37:03.708Z,44.73
2019-04-11T18:39:33.644Z,42.08
2019-04-11T18:42:02.285Z,45.78
2019-04-11T18:44:30.731Z,48.13
2019-04-11T18:46:59.507Z,48.33
2019-04-11T18:49:28.018Z,41.18
2019-04-11T18:51:56.443Z,43.02
2019-04-11T18:54:24.892Z,39.38
2019-04-11T18:56:53.308Z,41.25
2019-04-11T18:59:21.835Z,42.45
2019-04-11T19:01:50.256Z,41.02
2019-04-11T19:04:18.708Z,42.40
2019-04-11T19:06:47.118Z,46.08
2019-04-11T19:09:17.072Z,41.60
2019-04-11T19:11:46.421Z,46.95
2019-04-11T19:14:16.104Z,45.35
2019-04-11T19:16:46.027Z,41.20
2019-04-11T19:19:17.894Z,42.45
2019-04-11T19:21:50.688Z,40.90
2019-04-11T19:24:16.715Z,39.27
2019-04-11T19:26:46.337Z,43.38
2019-04-11T19:29:15.366Z,40.52
2019-04-11T19:31:43.786Z,49.53
2019-04-11T19:34:12.228Z,50.08
2019-04-11T19:36:42.411Z,47.85
2019-04-11T19:39:13.674Z,45.85
2019-04-11T19:41:41.212Z,40.88
2019-04-11T19:44:09.663Z,42.17
2019-04-11T19:46:39.723Z,43.50
2019-04-11T19:49:08.287Z,45.75
2019-04-11T19:51:36.702Z,49.70
2019-04-11T19:54:07.576Z,43.38
2019-04-11T19:56:53.879Z,41.50
2019-04-11T19:59:22.388Z,44.67
2019-04-11T20:01:53.151Z,45.65
2019-04-11T20:04:21.697Z,43.90
2019-04-11T20:06:51.184Z,48.87
2019-04-11T20:09:19.631Z,43.80
2019-04-11T20:11:48.052Z,44.25
2019-04-11T20:14:16.508Z,50.10
2019-04-11T20:16:48.350Z,44.38
2019-04-11T20:19:15.155Z,48.15
2019-04-11T20:21:43.586Z,43.55
2019-04-11T20:24:14.248Z,48.83
2019-04-11T20:26:42.504Z,48.15
2019-04-11T20:29:10.950Z,46.37
2019-04-11T20:31:39.680Z,43.40
2019-04-11T20:34:08.238Z,48.05
2019-04-11T20:36:40.866Z,46.63
2019-04-11T20:39:07.833Z,45.85
2019-04-11T20:41:36.387Z,51.77
2019-04-11T20:44:04.974Z,49.30
2019-04-11T20:46:33.410Z,46.92
2019-04-11T20:49:01.846Z,50.52
2019-04-11T20:51:30.263Z,49.67
2019-04-11T20:53:58.714Z,54.03
2019-04-11T20:56:27.208Z,55.10
2019-04-11T20:58:55.628Z,46.42
2019-04-11T21:01:26.183Z,46.65
2019-04-11T21:03:54.227Z,45.80
2019-04-11T21:06:22.676Z,50.70
2019-04-11T21:08:51.098Z,50.30
2019-04-11T21:11:19.542Z,50.73
2019-04-11T21:13:47.963Z,47.15
2019-04-11T21:16:16.414Z,56.83
2019-04-11T21:18:44.851Z,54.70
2019-04-11T21:21:13.294Z,50.80
2019-04-11T21:23:41.714Z,51.45
2019-04-11T21:26:10.163Z,48.83
2019-04-11T21:28:38.589Z,50.25
2019-04-11T21:31:07.039Z,47.73
2019-04-11T21:33:35.454Z,53.48
2019-04-11T21:36:04.315Z,47.23
2019-04-11T21:38:32.730Z,48.92
2019-04-11T21:41:01.179Z,50.23
2019-04-11T21:43:29.951Z,48.08
2019-04-11T21:45:58.598Z,47.65
2019-04-11T21:48:27.331Z,50.38
2019-04-11T21:50:55.780Z,52.23
2019-04-11T21:53:35.829Z,51.30
2019-04-11T21:55:54.374Z,52.95
2019-04-11T21:58:22.796Z,55.10
2019-04-11T22:00:59.893Z,54.10
2019-04-11T22:03:28.382Z,50.00
2019-04-11T22:05:59.855Z,55.95
2019-04-11T22:08:26.979Z,51.88
2019-04-11T22:10:55.427Z,53.60
2019-04-11T22:13:24.149Z,51.85
2019-04-11T22:15:52.595Z,53.80
2019-04-11T22:18:21.020Z,49.95
2019-04-11T22:20:49.475Z,50.85
2019-04-11T22:23:17.958Z,57.10
2019-04-11T22:25:46.407Z,59.83
2019-04-11T22:28:14.827Z,49.85
2019-04-11T22:30:43.347Z,53.73
2019-04-11T22:33:29.661Z,51.10
2019-04-11T22:35:59.325Z,51.98
2019-04-11T22:38:30.558Z,51.83
2019-04-11T22:41:01.766Z,52.08
2019-04-11T22:43:29.263Z,53.13
2019-04-11T22:45:58.627Z,52.45
2019-04-11T22:48:27.047Z,55.33
2019-04-11T22:50:55.563Z,55.05
2019-04-11T22:53:23.987Z,56.28
2019-04-11T22:55:52.435Z,58.40
2019-04-11T22:58:20.855Z,52.40
2019-04-11T23:00:51.566Z,47.03
2019-04-11T23:03:21.087Z,55.65
2019-04-11T23:05:49.536Z,56.15
2019-04-11T23:08:19.253Z,53.90
2019-04-11T23:10:48.402Z,52.78
2019-04-11T23:13:16.832Z,53.58
2019-04-11T23:15:45.584Z,53.60
2019-04-11T23:18:14.730Z,52.17
2019-04-11T23:20:44.075Z,53.23
2019-04-11T23:23:13.505Z,51.40
2019-04-11T23:25:42.633Z,57.45
2019-04-11T23:28:11.083Z,58.40
2019-04-11T23:30:39.604Z,60.40
2019-04-11T23:33:08.027Z,54.55
2019-04-11T23:35:36.474Z,57.27
2019-04-11T23:38:04.962Z,58.00
2019-04-11T23:40:33.406Z,59.58
2019-04-11T23:43:01.827Z,55.52
2019-04-11T23:45:30.274Z,56.42
2019-04-11T23:47:58.695Z,58.00
2019-04-11T23:50:27.147Z,54.63
2019-04-11T23:52:57.933Z,55.65
2019-04-11T23:55:29.965Z,54.75
2019-04-11T23:57:56.135Z,59.25
